createdAt,value
2018-02-27T00:01:14.828Z,2.17
2018-02-27T00:03:43.096Z,2.23
2018-02-27T00:06:11.376Z,2.70
2018-02-27T00:08:39.655Z,2.65
2018-02-27T00:11:07.920Z,2.60
2018-02-27T00:13:36.208Z,2.37
2018-02-27T00:16:04.473Z,2.53
2018-02-27T00:18:32.745Z,2.65
2018-02-27T00:21:01.024Z,2.63
2018-02-27T00:23:29.293Z,2.35
2018-02-27T00:25:57.578Z,2.83
2018-02-27T00:28:25.853Z,2.90
2018-02-27T00:30:54.132Z,2.90
2018-02-27T00:33:22.505Z,3.20
2018-02-27T00:35:50.769Z,2.87
2018-02-27T00:38:19.054Z,3.27
2018-02-27T00:40:47.333Z,2.65
2018-02-27T00:43:15.614Z,2.95
2018-02-27T00:45:43.886Z,2.80
2018-02-27T00:48:12.147Z,3.58
2018-02-27T00:50:40.433Z,3.08
2018-02-27T00:53:08.717Z,3.30
2018-02-27T00:55:37.000Z,3.50
2018-02-27T00:58:05.284Z,3.08
2018-02-27T01:00:33.643Z,3.03
2018-02-27T01:03:01.934Z,3.45
2018-02-27T01:05:30.192Z,2.50
2018-02-27T01:07:58.461Z,3.00
2018-02-27T01:10:26.745Z,2.77
2018-02-27T01:12:55.004Z,3.13
2018-02-27T01:15:23.284Z,3.03
2018-02-27T01:17:51.547Z,2.60
2018-02-27T01:20:19.825Z,3.20
2018-02-27T01:22:48.885Z,3.00
2018-02-27T01:25:17.328Z,2.47
2018-02-27T01:27:45.603Z,2.70
2018-02-27T01:30:13.880Z,3.28
2018-02-27T01:32:42.157Z,2.90
2018-02-27T01:35:10.448Z,2.80
2018-02-27T01:37:38.720Z,2.60
2018-02-27T01:40:07.001Z,3.00
2018-02-27T01:42:35.280Z,3.53
2018-02-27T01:45:04.356Z,3.03
2018-02-27T01:47:32.644Z,3.35
2018-02-27T01:50:00.940Z,2.80
2018-02-27T01:52:29.287Z,2.95
2018-02-27T01:54:57.572Z,2.70
2018-02-27T01:57:25.842Z,2.50
2018-02-27T01:59:54.140Z,3.25
2018-02-27T02:02:22.403Z,3.07
2018-02-27T02:04:50.696Z,3.30
2018-02-27T02:07:18.963Z,2.90
2018-02-27T02:09:47.240Z,2.87
2018-02-27T02:12:15.512Z,3.40
2018-02-27T02:14:43.780Z,3.45
2018-02-27T02:17:12.148Z,3.17
2018-02-27T02:19:40.436Z,3.35
2018-02-27T02:22:08.717Z,3.40
2018-02-27T02:24:36.990Z,3.30
2018-02-27T02:27:05.269Z,3.70
2018-02-27T02:29:33.569Z,3.08
2018-02-27T02:32:01.833Z,2.80
2018-02-27T02:34:30.135Z,3.58
2018-02-27T02:36:59.172Z,3.23
2018-02-27T02:39:27.469Z,3.50
2018-02-27T02:55:37.839Z,3.47
2018-02-27T02:58:06.134Z,3.10
2018-02-27T03:00:35.273Z,3.35
2018-02-27T03:03:03.559Z,3.55
2018-02-27T03:05:31.824Z,3.73
2018-02-27T03:08:00.123Z,3.55
2018-02-27T03:10:28.416Z,3.80
2018-02-27T03:12:56.692Z,3.80
2018-02-27T03:15:24.968Z,3.60
2018-02-27T03:17:53.234Z,2.83
2018-02-27T03:20:21.533Z,3.55
2018-02-27T03:22:49.792Z,3.87
2018-02-27T03:25:18.067Z,3.47
2018-02-27T03:27:46.346Z,3.30
2018-02-27T03:30:14.644Z,2.85
2018-02-27T03:32:43.691Z,3.95
2018-02-27T03:35:11.972Z,3.75
2018-02-27T03:37:40.236Z,3.35
2018-02-27T03:40:08.516Z,4.10
2018-02-27T03:42:36.787Z,3.30
2018-02-27T03:45:06.304Z,2.72
2018-02-27T03:47:34.576Z,3.60
2018-02-27T03:50:02.841Z,3.40
2018-02-27T03:52:31.119Z,3.95
2018-02-27T03:54:59.391Z,3.80
2018-02-27T03:57:27.673Z,4.00
2018-02-27T03:59:56.048Z,3.70
2018-02-27T04:02:24.311Z,3.63
2018-02-27T04:04:52.592Z,4.32
2018-02-27T04:07:20.855Z,3.40
2018-02-27T04:09:49.134Z,3.72
2018-02-27T04:12:17.404Z,4.70
2018-02-27T04:14:45.679Z,3.53
2018-02-27T04:17:13.972Z,3.10
2018-02-27T04:19:42.236Z,3.55
2018-02-27T04:22:10.511Z,3.05
2018-02-27T04:24:38.787Z,3.58
2018-02-27T04:27:07.061Z,3.73
2018-02-27T04:29:35.334Z,4.15
2018-02-27T04:32:04.433Z,2.97
2018-02-27T04:34:32.704Z,3.42
2018-02-27T04:37:01.724Z,3.67
2018-02-27T04:39:30.015Z,3.20
2018-02-27T04:41:58.272Z,3.70
2018-02-27T04:44:26.648Z,3.47
2018-02-27T04:46:54.908Z,3.47
2018-02-27T04:49:23.175Z,3.53
2018-02-27T04:51:52.227Z,3.35
2018-02-27T04:54:20.489Z,3.17
2018-02-27T04:56:48.789Z,4.43
2018-02-27T04:59:17.056Z,3.28
2018-02-27T05:01:45.401Z,4.00
2018-02-27T05:04:13.701Z,2.80
2018-02-27T05:06:42.052Z,3.50
2018-02-27T05:09:10.339Z,3.70
2018-02-27T05:11:38.626Z,3.57
2018-02-27T05:14:06.911Z,4.00
2018-02-27T05:16:35.200Z,4.13
2018-02-27T05:19:03.544Z,3.92
2018-02-27T05:21:31.879Z,4.30
2018-02-27T05:24:00.915Z,4.43
2018-02-27T05:26:29.215Z,3.60
2018-02-27T05:28:57.488Z,4.40
2018-02-27T05:31:25.788Z,3.57
2018-02-27T05:33:54.050Z,3.58
2018-02-27T05:36:22.319Z,3.67
2018-02-27T05:38:50.621Z,4.07
2018-02-27T05:41:18.888Z,4.10
2018-02-27T05:43:47.170Z,3.83
2018-02-27T05:46:15.447Z,4.25
2018-02-27T05:48:43.708Z,4.65
2018-02-27T05:51:12.004Z,3.90
2018-02-27T05:53:41.028Z,3.37
2018-02-27T05:56:09.316Z,4.47
2018-02-27T05:58:37.573Z,3.67
2018-02-27T06:01:05.839Z,4.17
2018-02-27T06:03:34.890Z,4.62
2018-02-27T06:06:03.152Z,3.70
2018-02-27T06:08:31.414Z,3.58
2018-02-27T06:10:59.689Z,3.90
2018-02-27T06:13:27.948Z,3.55
2018-02-27T06:15:56.208Z,3.80
2018-02-27T06:18:25.265Z,3.85
2018-02-27T06:20:54.325Z,3.43
2018-02-27T06:23:22.597Z,3.65
2018-02-27T06:25:50.886Z,3.20
2018-02-27T06:28:19.147Z,4.20
2018-02-27T06:30:47.421Z,3.37
2018-02-27T06:33:15.688Z,3.70
2018-02-27T06:35:43.964Z,3.80
2018-02-27T06:38:12.254Z,10.68
2018-02-27T06:40:40.520Z,5.18
2018-02-27T06:43:08.787Z,4.45
2018-02-27T06:45:37.081Z,4.60
2018-02-27T06:48:05.346Z,5.55
2018-02-27T06:50:33.620Z,9.65
2018-02-27T06:53:01.905Z,4.47
2018-02-27T06:55:30.192Z,4.07
2018-02-27T06:57:58.458Z,3.90
2018-02-27T07:00:26.793Z,3.50
2018-02-27T07:02:55.941Z,4.68
2018-02-27T07:05:24.213Z,6.28
2018-02-27T07:07:52.498Z,5.22
2018-02-27T07:10:20.927Z,4.53
2018-02-27T07:12:49.148Z,4.68
2018-02-27T07:15:17.431Z,4.75
2018-02-27T07:17:45.767Z,5.35
2018-02-27T07:20:14.803Z,4.45
2018-02-27T07:22:43.173Z,3.83
2018-02-27T07:25:11.470Z,3.70
2018-02-27T07:27:39.760Z,3.80
2018-02-27T07:30:08.078Z,3.83
2018-02-27T07:32:36.295Z,5.12
2018-02-27T07:35:04.584Z,4.30
2018-02-27T07:37:32.868Z,4.03
2018-02-27T07:40:01.202Z,3.87
2018-02-27T07:42:29.480Z,3.90
2018-02-27T07:44:57.754Z,3.22
2018-02-27T07:47:26.028Z,3.50
2018-02-27T07:49:54.312Z,3.05
2018-02-27T07:52:22.585Z,3.55
2018-02-27T07:54:50.852Z,3.80
2018-02-27T07:57:19.129Z,3.37
2018-02-27T07:59:47.390Z,3.60
2018-02-27T08:02:15.684Z,2.93
2018-02-27T08:04:43.969Z,3.53
2018-02-27T08:07:12.236Z,3.57
2018-02-27T08:09:41.271Z,3.47
2018-02-27T08:12:09.563Z,3.20
2018-02-27T08:14:38.603Z,3.60
2018-02-27T08:17:06.855Z,4.30
2018-02-27T08:19:35.140Z,2.78
2018-02-27T08:22:03.444Z,3.30
2018-02-27T08:24:31.728Z,3.00
2018-02-27T08:27:00.081Z,3.40
2018-02-27T08:29:28.339Z,3.40
2018-02-27T08:31:56.604Z,2.50
2018-02-27T08:34:25.656Z,2.92
2018-02-27T08:36:53.911Z,2.83
2018-02-27T08:39:22.186Z,3.00
2018-02-27T08:41:50.476Z,4.00
2018-02-27T08:44:18.768Z,4.40
2018-02-27T08:46:47.032Z,3.77
2018-02-27T08:49:15.312Z,3.90
2018-02-27T08:51:43.580Z,5.73
2018-02-27T08:54:11.934Z,4.05
2018-02-27T08:56:40.210Z,3.30
2018-02-27T08:59:08.464Z,3.75
2018-02-27T09:01:37.511Z,2.00
2018-02-27T09:04:05.787Z,2.58
2018-02-27T09:06:34.090Z,2.70
2018-02-27T09:09:03.123Z,4.57
2018-02-27T09:11:31.424Z,2.58
2018-02-27T09:13:59.692Z,2.22
2018-02-27T09:16:27.955Z,2.57
2018-02-27T09:18:56.229Z,2.87
2018-02-27T09:21:24.484Z,1.70
2018-02-27T09:23:52.787Z,1.85
2018-02-27T09:26:21.868Z,1.97
2018-02-27T09:28:50.136Z,2.07
2018-02-27T09:31:18.432Z,1.70
2018-02-27T09:33:46.708Z,1.48
2018-02-27T09:36:14.964Z,1.40
2018-02-27T09:38:43.282Z,1.87
2018-02-27T09:41:11.636Z,1.90
2018-02-27T09:43:39.906Z,1.90
2018-02-27T09:46:08.172Z,1.90
2018-02-27T09:48:36.468Z,1.90
2018-02-27T09:51:04.738Z,1.70
2018-02-27T09:53:33.764Z,1.70
2018-02-27T09:56:02.047Z,2.03
2018-02-27T09:58:30.313Z,1.80
2018-02-27T10:00:58.590Z,2.20
2018-02-27T10:03:26.865Z,1.70
2018-02-27T10:05:55.221Z,1.80
2018-02-27T10:08:23.501Z,1.33
2018-02-27T10:10:51.882Z,1.83
2018-02-27T10:13:20.148Z,1.40
2018-02-27T10:15:48.404Z,1.67
2018-02-27T10:18:16.700Z,1.90
2018-02-27T10:20:45.801Z,2.37
2018-02-27T10:23:14.061Z,1.63
2018-02-27T10:25:42.342Z,1.57
2018-02-27T10:28:10.608Z,1.30
2018-02-27T10:30:38.898Z,1.53
2018-02-27T10:33:07.175Z,1.77
2018-02-27T10:35:35.559Z,1.52
2018-02-27T10:38:03.836Z,1.67
2018-02-27T10:40:32.117Z,1.20
2018-02-27T10:43:00.376Z,1.13
2018-02-27T10:45:28.636Z,1.40
2018-02-27T10:47:56.936Z,1.00
2018-02-27T10:50:25.214Z,1.30
2018-02-27T10:52:53.489Z,2.40
2018-02-27T10:55:21.764Z,1.30
2018-02-27T10:57:50.037Z,1.27
2018-02-27T11:00:23.776Z,1.80
2018-02-27T11:02:52.053Z,2.00
2018-02-27T11:05:20.316Z,2.67
2018-02-27T11:07:48.588Z,1.10
2018-02-27T11:10:16.861Z,2.43
2018-02-27T11:12:45.221Z,1.20
2018-02-27T11:15:13.503Z,1.70
2018-02-27T11:17:41.763Z,2.03
2018-02-27T11:20:10.028Z,1.20
2018-02-27T11:22:39.150Z,1.07
2018-02-27T11:25:07.428Z,1.30
2018-02-27T11:27:35.679Z,1.10
2018-02-27T11:30:03.960Z,0.97
2018-02-27T11:32:32.218Z,1.10
2018-02-27T11:35:01.345Z,1.20
2018-02-27T11:37:29.720Z,1.20
2018-02-27T11:39:57.976Z,1.43
2018-02-27T11:42:26.273Z,1.30
2018-02-27T11:44:54.575Z,1.20
2018-02-27T11:47:22.835Z,1.10
2018-02-27T11:49:51.097Z,1.53
2018-02-27T11:52:19.384Z,1.30
2018-02-27T11:54:47.638Z,1.00
2018-02-27T11:57:15.945Z,1.17
2018-02-27T11:59:44.228Z,1.50
2018-02-27T12:02:12.513Z,1.55
2018-02-27T12:04:40.780Z,1.97
2018-02-27T12:07:09.073Z,1.67
2018-02-27T12:09:37.336Z,1.33
2018-02-27T12:12:05.592Z,1.23
2018-02-27T12:14:33.856Z,1.10
2018-02-27T12:17:02.150Z,1.60
2018-02-27T12:19:30.400Z,1.17
2018-02-27T12:21:58.680Z,1.30
2018-02-27T12:24:26.936Z,0.97
2018-02-27T12:26:55.957Z,0.93
2018-02-27T12:29:24.232Z,1.00
2018-02-27T12:31:52.499Z,1.55
2018-02-27T12:34:20.755Z,4.03
2018-02-27T12:36:49.792Z,1.17
2018-02-27T12:39:18.156Z,1.43
2018-02-27T12:41:46.399Z,1.20
2018-02-27T12:44:15.431Z,1.20
2018-02-27T12:46:43.716Z,1.40
2018-02-27T12:49:11.992Z,3.35
2018-02-27T12:51:40.356Z,1.50
2018-02-27T12:54:08.611Z,1.30
2018-02-27T12:56:36.887Z,2.10
2018-02-27T12:59:05.912Z,1.07
2018-02-27T13:01:34.155Z,0.73
2018-02-27T13:04:02.400Z,0.80
2018-02-27T13:06:30.736Z,1.30
2018-02-27T13:08:59.003Z,0.70
2018-02-27T13:11:27.284Z,0.80
2018-02-27T13:13:55.552Z,1.23
2018-02-27T13:16:23.837Z,1.00
2018-02-27T13:18:52.085Z,1.10
2018-02-27T13:21:20.363Z,0.90
2018-02-27T13:23:49.480Z,0.60
2018-02-27T13:26:17.753Z,0.63
2018-02-27T13:28:46.025Z,0.77
2018-02-27T13:31:14.288Z,1.00
2018-02-27T13:33:43.321Z,0.80
2018-02-27T13:36:11.683Z,0.80
2018-02-27T13:38:39.954Z,1.63
2018-02-27T13:41:08.233Z,1.97
2018-02-27T13:43:36.504Z,0.97
2018-02-27T13:46:04.780Z,2.83
2018-02-27T13:48:33.084Z,1.00
2018-02-27T13:51:02.162Z,0.87
2018-02-27T13:53:30.424Z,0.70
2018-02-27T13:55:58.716Z,1.50
2018-02-27T13:58:26.943Z,0.70
2018-02-27T14:00:55.984Z,0.97
2018-02-27T14:03:24.248Z,0.60
2018-02-27T14:05:52.530Z,1.33
2018-02-27T14:08:20.916Z,1.10
2018-02-27T14:10:49.167Z,1.10
2018-02-27T14:13:17.457Z,1.20
2018-02-27T14:15:45.738Z,0.97
2018-02-27T14:18:13.993Z,1.80
2018-02-27T14:20:42.305Z,0.83
2018-02-27T14:23:10.576Z,1.00
2018-02-27T14:25:38.846Z,1.00
2018-02-27T14:28:07.103Z,0.80
2018-02-27T14:30:35.370Z,1.30
2018-02-27T14:33:03.657Z,0.70
2018-02-27T14:35:31.927Z,0.90
2018-02-27T14:38:00.198Z,1.70
2018-02-27T14:40:28.472Z,1.53
2018-02-27T14:42:57.509Z,1.20
2018-02-27T14:45:25.775Z,1.77
2018-02-27T14:47:54.036Z,1.10
2018-02-27T14:50:22.283Z,1.10
2018-02-27T14:52:51.315Z,1.97
2018-02-27T14:55:19.580Z,1.40
2018-02-27T14:57:47.845Z,3.53
2018-02-27T15:00:17.272Z,2.95
2018-02-27T15:02:45.520Z,4.80
2018-02-27T15:05:13.803Z,1.20
2018-02-27T15:07:42.053Z,1.00
2018-02-27T15:10:11.074Z,1.20
2018-02-27T15:12:39.340Z,1.80
2018-02-27T15:15:07.628Z,1.30
2018-02-27T15:17:35.908Z,0.77
2018-02-27T15:20:04.168Z,1.00
2018-02-27T15:22:32.424Z,0.90
2018-02-27T15:25:01.460Z,0.90
2018-02-27T15:27:29.715Z,0.90
2018-02-27T15:29:57.973Z,0.90
2018-02-27T15:32:27.016Z,0.87
2018-02-27T15:34:55.265Z,0.93
2018-02-27T15:37:23.532Z,1.30
2018-02-27T15:39:51.803Z,2.60
2018-02-27T15:42:20.821Z,2.93
2018-02-27T15:44:49.071Z,3.10
2018-02-27T15:47:18.184Z,1.10
2018-02-27T15:49:46.487Z,1.10
2018-02-27T15:52:14.724Z,1.50
2018-02-27T15:54:42.991Z,1.10
2018-02-27T15:57:12.016Z,0.80
2018-02-27T15:59:40.268Z,1.50
2018-02-27T16:02:08.561Z,1.90
2018-02-27T16:04:36.856Z,1.40
2018-02-27T16:07:05.104Z,2.10
2018-02-27T16:09:33.377Z,1.80
2018-02-27T16:12:01.679Z,1.17
2018-02-27T16:14:29.951Z,4.03
2018-02-27T16:16:58.206Z,2.00
2018-02-27T16:19:26.485Z,3.23
2018-02-27T16:21:54.751Z,1.00
2018-02-27T16:24:23.008Z,1.90
2018-02-27T16:26:52.157Z,1.20
2018-02-27T16:29:20.429Z,1.50
2018-02-27T16:31:48.702Z,1.10
2018-02-27T16:34:16.976Z,0.90
2018-02-27T16:36:45.312Z,1.10
2018-02-27T16:39:14.346Z,1.40
2018-02-27T16:41:42.622Z,1.37
2018-02-27T16:44:10.958Z,1.20
2018-02-27T16:46:40.602Z,1.40
2018-02-27T16:49:08.941Z,3.27
2018-02-27T16:51:37.980Z,5.07
2018-02-27T16:54:06.280Z,2.20
2018-02-27T16:56:34.620Z,1.20
2018-02-27T16:59:02.901Z,2.30
2018-02-27T17:01:31.172Z,2.00
2018-02-27T17:03:59.463Z,1.80
2018-02-27T17:06:27.780Z,2.20
2018-02-27T17:08:56.060Z,2.13
2018-02-27T17:11:24.344Z,1.80
2018-02-27T17:13:53.507Z,1.70
2018-02-27T17:16:21.861Z,1.67
2018-02-27T17:18:50.281Z,1.80
2018-02-27T17:21:19.084Z,3.43
2018-02-27T17:23:47.503Z,2.83
2018-02-27T17:26:16.091Z,3.73
2018-02-27T17:28:44.447Z,4.90
2018-02-27T17:31:14.297Z,1.60
2018-02-27T17:33:44.136Z,3.83
2018-02-27T17:36:14.171Z,3.25
2018-02-27T17:38:44.077Z,2.90
2018-02-27T17:41:14.259Z,4.97
2018-02-27T17:43:44.023Z,4.60
2018-02-27T17:46:13.856Z,4.50
2018-02-27T17:48:44.466Z,3.30
2018-02-27T17:51:14.332Z,2.13
2018-02-27T17:53:44.425Z,1.97
2018-02-27T17:56:15.089Z,1.70
2018-02-27T17:58:45.143Z,3.10
2018-02-27T18:01:15.198Z,2.15
2018-02-27T18:03:45.972Z,4.23
2018-02-27T18:06:15.963Z,5.27
2018-02-27T18:08:45.835Z,4.30
2018-02-27T18:11:15.694Z,2.80
2018-02-27T18:13:45.537Z,8.03
2018-02-27T18:16:15.400Z,17.70
2018-02-27T18:18:46.089Z,16.43
2018-02-27T18:21:15.917Z,7.32
2018-02-27T18:23:45.799Z,4.80
2018-02-27T18:26:15.816Z,3.10
2018-02-27T18:28:45.877Z,3.00
2018-02-27T18:31:15.841Z,3.80
2018-02-27T18:33:45.966Z,3.50
2018-02-27T18:36:15.851Z,3.03
2018-02-27T18:38:45.940Z,2.70
2018-02-27T18:41:16.035Z,2.30
2018-02-27T18:43:46.202Z,1.50
2018-02-27T18:46:16.293Z,3.30
2018-02-27T18:48:46.338Z,3.00
2018-02-27T18:51:16.267Z,3.90
2018-02-27T18:53:45.683Z,2.10
2018-02-27T18:56:14.966Z,3.67
2018-02-27T18:58:45.617Z,7.20
2018-02-27T19:01:17.413Z,12.20
2018-02-27T19:03:48.196Z,9.90
2018-02-27T19:06:18.149Z,5.53
2018-02-27T19:08:48.133Z,3.95
2018-02-27T19:11:18.060Z,2.22
2018-02-27T19:13:48.891Z,3.22
2018-02-27T19:16:18.785Z,1.70
2018-02-27T19:18:48.983Z,1.83
2018-02-27T19:21:19.638Z,2.20
2018-02-27T19:23:49.605Z,2.40
2018-02-27T19:26:20.017Z,2.33
2018-02-27T19:28:49.980Z,2.40
2018-02-27T19:31:20.506Z,1.87
2018-02-27T19:33:50.788Z,2.45
2018-02-27T19:36:21.816Z,2.00
2018-02-27T19:38:51.853Z,1.80
2018-02-27T19:41:22.514Z,1.63
2018-02-27T19:43:53.325Z,1.25
2018-02-27T19:46:23.164Z,1.70
2018-02-27T19:48:54.583Z,1.90
2018-02-27T19:51:25.039Z,1.60
2018-02-27T19:53:55.128Z,2.00
2018-02-27T19:56:25.121Z,2.90
2018-02-27T19:58:56.561Z,3.12
2018-02-27T20:01:26.494Z,4.30
2018-02-27T20:03:56.594Z,5.50
2018-02-27T20:06:25.954Z,1.93
2018-02-27T20:08:56.849Z,1.60
2018-02-27T20:11:27.267Z,2.00
2018-02-27T20:13:56.943Z,2.00
2018-02-27T20:16:27.543Z,1.87
2018-02-27T20:18:56.904Z,1.83
2018-02-27T20:21:27.618Z,1.70
2018-02-27T20:24:02.920Z,1.83
2018-02-27T20:26:32.856Z,2.00
2018-02-27T20:29:07.970Z,1.45
2018-02-27T20:31:38.040Z,1.30
2018-02-27T20:34:07.462Z,2.15
2018-02-27T20:36:37.308Z,1.80
2018-02-27T20:39:29.000Z,1.95
2018-02-27T20:41:58.889Z,2.30
2018-02-27T20:44:28.870Z,2.40
2018-02-27T20:46:59.199Z,3.43
2018-02-27T20:49:29.396Z,3.28
2018-02-27T20:51:58.699Z,4.20
2018-02-27T20:54:28.840Z,5.00
2018-02-27T20:56:58.887Z,3.43
2018-02-27T20:59:28.295Z,5.87
2018-02-27T21:01:57.699Z,2.40
2018-02-27T21:04:27.246Z,3.33
2018-02-27T21:06:56.693Z,1.70
2018-02-27T21:09:26.093Z,1.70
2018-02-27T21:11:55.438Z,2.17
2018-02-27T21:14:24.740Z,2.10
2018-02-27T21:16:54.303Z,1.83
2018-02-27T21:19:23.596Z,1.70
2018-02-27T21:21:53.795Z,1.93
2018-02-27T21:24:23.833Z,2.10
2018-02-27T21:26:54.026Z,2.20
2018-02-27T21:29:23.369Z,1.80
2018-02-27T21:31:52.651Z,1.77
2018-02-27T21:34:22.820Z,1.62
2018-02-27T21:36:52.133Z,2.30
2018-02-27T21:39:21.551Z,1.75
2018-02-27T21:41:50.890Z,1.70
2018-02-27T21:44:20.237Z,1.48
2018-02-27T21:46:49.550Z,1.53
2018-02-27T21:49:18.943Z,1.85
2018-02-27T21:51:48.230Z,1.50
2018-02-27T21:54:18.423Z,1.60
2018-02-27T21:56:47.688Z,1.80
2018-02-27T21:59:17.869Z,1.65
2018-02-27T22:01:47.151Z,1.90
2018-02-27T22:04:16.326Z,2.62
2018-02-27T22:06:46.266Z,3.53
2018-02-27T22:09:15.366Z,3.28
2018-02-27T22:11:44.484Z,3.60
2018-02-27T22:14:13.469Z,3.83
2018-02-27T22:16:42.283Z,4.10
2018-02-27T22:19:10.893Z,4.90
2018-02-27T22:21:39.304Z,3.70
2018-02-27T22:24:07.647Z,3.85
2018-02-27T22:26:35.928Z,3.90
2018-02-27T22:29:04.196Z,3.85
2018-02-27T22:31:33.228Z,3.83
2018-02-27T22:34:01.493Z,2.80
2018-02-27T22:36:29.776Z,3.57
2018-02-27T22:38:58.057Z,3.25
2018-02-27T22:41:26.343Z,3.27
2018-02-27T22:43:54.607Z,3.00
2018-02-27T22:46:22.891Z,2.87
2018-02-27T22:48:51.156Z,3.42
2018-02-27T22:51:19.496Z,3.15
2018-02-27T22:53:47.756Z,1.65
2018-02-27T22:56:16.038Z,2.40
2018-02-27T22:58:44.313Z,2.25
2018-02-27T23:01:12.577Z,1.83
2018-02-27T23:03:41.616Z,1.92
2018-02-27T23:06:09.896Z,1.83
2018-02-27T23:08:38.152Z,1.62
2018-02-27T23:11:06.416Z,2.00
2018-02-27T23:13:34.701Z,2.35
2018-02-27T23:16:02.966Z,2.40
2018-02-27T23:18:31.228Z,2.85
2018-02-27T23:21:00.278Z,2.10
2018-02-27T23:23:28.547Z,2.35
2018-02-27T23:26:05.390Z,2.73
2018-02-27T23:28:35.152Z,2.28
2018-02-27T23:31:03.497Z,1.95
2018-02-27T23:33:42.839Z,2.10
2018-02-27T23:36:11.099Z,2.47
2018-02-27T23:38:39.368Z,2.28
2018-02-27T23:41:07.648Z,2.50
2018-02-27T23:43:35.942Z,2.70
2018-02-27T23:46:04.231Z,3.03
2018-02-27T23:48:32.490Z,2.58
2018-02-27T23:51:00.766Z,2.70
2018-02-27T23:53:29.025Z,2.92
2018-02-27T23:55:57.297Z,3.20
2018-02-27T23:58:25.588Z,2.42
